Aviation Digital Data Service (ADDS)

Output produced by METARs form (2309 UTC 23 March 2019)
found at http://www.aviationweather.gov/metar/data/
 
METAR text: MMGL 232242Z 28005G17KT 10SM FEW030 28/M05 A3012 RMK 8/100
Conditions at: MMGL (GUADALAJARA , MX) observed 2242 UTC 23 March 2019
Temperature: 28.0°C (82°F)
Dewpoint: -5.0°C (23°F) [RH = 11%]
Pressure (altimeter): 30.12 inches Hg (1020.1 mb)
Winds: from the W (280 degrees) at 6 MPH (5 knots; 2.6 m/s)
gusting to 20 MPH (17 knots; 8.7 m/s)
Visibility: 10 or more miles (16+ km)
Ceiling: at least 12,000 feet AGL
Clouds: few clouds at 3000 feet AGL
Weather: no significant weather observed at this time

METAR text: MMGL 232141Z 30011KT 10SM FEW030 28/M05 A3012 RMK 8/100
Conditions at: MMGL (GUADALAJARA , MX) observed 2141 UTC 23 March 2019
Temperature: 28.0°C (82°F)
Dewpoint: -5.0°C (23°F) [RH = 11%]
Pressure (altimeter): 30.12 inches Hg (1020.1 mb)
Winds: from the WNW (300 degrees) at 13 MPH (11 knots; 5.7 m/s)
Visibility: 10 or more miles (16+ km)
Ceiling: at least 12,000 feet AGL
Clouds: few clouds at 3000 feet AGL
Weather: no significant weather observed at this time

METAR text: MMGL 232049Z 06003G14KT 10SM FEW030 27/M02 A3014 RMK SLP093 57034 902 8/100
Conditions at: MMGL (GUADALAJARA , MX) observed 2049 UTC 23 March 2019
Temperature: 27.0°C (81°F)
Dewpoint: -2.0°C (28°F) [RH = 15%]
Pressure (altimeter): 30.14 inches Hg (1020.7 mb)
[Sea-level pressure: 1009.3 mb]
Winds: from the ENE (60 degrees) at 3 MPH (3 knots; 1.5 m/s)
gusting to 16 MPH (14 knots; 7.2 m/s)
Visibility: 10 or more miles (16+ km)
Ceiling: at least 12,000 feet AGL
Clouds: few clouds at 3000 feet AGL
Weather: no significant weather observed at this time

METAR text: MMGL 231951Z 30005KT 10SM SKC 26/02 A3018 RMK ISOL CU
Conditions at: MMGL (GUADALAJARA , MX) observed 1951 UTC 23 March 2019
Temperature: 26.0°C (79°F)
Dewpoint: 2.0°C (36°F) [RH = 21%]
Pressure (altimeter): 30.18 inches Hg (1022.1 mb)
Winds: from the WNW (300 degrees) at 6 MPH (5 knots; 2.6 m/s)
Visibility: 10 or more miles (16+ km)
Ceiling: at least 12,000 feet AGL
Clouds: clear skies
Weather: no significant weather observed at this time

METAR text: MMGL 231845Z 00000KT 10SM SKC 25/03 A3022 RMK ISOL CU
Conditions at: MMGL (GUADALAJARA , MX) observed 1845 UTC 23 March 2019
Temperature: 25.0°C (77°F)
Dewpoint: 3.0°C (37°F) [RH = 24%]
Pressure (altimeter): 30.22 inches Hg (1023.5 mb)
Winds: calm
Visibility: 10 or more miles (16+ km)
Ceiling: at least 12,000 feet AGL
Clouds: clear skies
Weather: no significant weather observed at this time

METAR text: MMGL 231746Z 06005KT 10SM SKC 23/05 A3026 RMK SLP128 57002 906
Conditions at: MMGL (GUADALAJARA , MX) observed 1746 UTC 23 March 2019
Temperature: 23.0°C (73°F)
Dewpoint: 5.0°C (41°F) [RH = 31%]
Pressure (altimeter): 30.26 inches Hg (1024.8 mb)
[Sea-level pressure: 1012.8 mb]
Winds: from the ENE (60 degrees) at 6 MPH (5 knots; 2.6 m/s)
Visibility: 10 or more miles (16+ km)
Ceiling: at least 12,000 feet AGL
Clouds: clear skies
Weather: no significant weather observed at this time

METAR text: MMGL 231644Z 36005KT 10SM SKC 21/06 A3028
Conditions at: MMGL (GUADALAJARA , MX) observed 1644 UTC 23 March 2019
Temperature: 21.0°C (70°F)
Dewpoint: 6.0°C (43°F) [RH = 38%]
Pressure (altimeter): 30.28 inches Hg (1025.5 mb)
Winds: from the N (360 degrees) at 6 MPH (5 knots; 2.6 m/s)
Visibility: 10 or more miles (16+ km)
Ceiling: at least 12,000 feet AGL
Clouds: clear skies
Weather: no significant weather observed at this time

METAR text: MMGL 231551Z 00000KT 10SM SKC 19/07 A3029
Conditions at: MMGL (GUADALAJARA , MX) observed 1551 UTC 23 March 2019
Temperature: 19.0°C (66°F)
Dewpoint: 7.0°C (45°F) [RH = 46%]
Pressure (altimeter): 30.29 inches Hg (1025.8 mb)
Winds: calm
Visibility: 10 or more miles (16+ km)
Ceiling: at least 12,000 feet AGL
Clouds: clear skies
Weather: no significant weather observed at this time

METAR text: MMGL 231450Z 00000KT 10SM SKC 17/07 A3029 RMK SLP136 52017 902
Conditions at: MMGL (GUADALAJARA , MX) observed 1450 UTC 23 March 2019
Temperature: 17.0°C (63°F)
Dewpoint: 7.0°C (45°F) [RH = 52%]
Pressure (altimeter): 30.29 inches Hg (1025.8 mb)
[Sea-level pressure: 1013.6 mb]
Winds: calm
Visibility: 10 or more miles (16+ km)
Ceiling: at least 12,000 feet AGL
Clouds: clear skies
Weather: no significant weather observed at this time

METAR text: MMGL 231348Z 00000KT 10SM SKC 13/07 A3027
Conditions at: MMGL (GUADALAJARA , MX) observed 1348 UTC 23 March 2019
Temperature: 13.0°C (55°F)
Dewpoint: 7.0°C (45°F) [RH = 67%]
Pressure (altimeter): 30.27 inches Hg (1025.1 mb)
Winds: calm
Visibility: 10 or more miles (16+ km)
Ceiling: at least 12,000 feet AGL
Clouds: clear skies
Weather: no significant weather observed at this time

METAR text: MMGL 231248Z 00000KT 10SM SKC 11/07 A3024
Conditions at: MMGL (GUADALAJARA , MX) observed 1248 UTC 23 March 2019
Temperature: 11.0°C (52°F)
Dewpoint: 7.0°C (45°F) [RH = 76%]
Pressure (altimeter): 30.24 inches Hg (1024.1 mb)
Winds: calm
Visibility: 10 or more miles (16+ km)
Ceiling: at least 12,000 feet AGL
Clouds: clear skies
Weather: no significant weather observed at this time

METAR text: MMGL 231145Z 00000KT 10SM SKC 11/06 A3022 RMK SLP119 52002 952
Conditions at: MMGL (GUADALAJARA , MX) observed 1145 UTC 23 March 2019
Temperature: 11.0°C (52°F)
Dewpoint: 6.0°C (43°F) [RH = 71%]
Pressure (altimeter): 30.22 inches Hg (1023.5 mb)
[Sea-level pressure: 1011.9 mb]
Winds: calm
Visibility: 10 or more miles (16+ km)
Ceiling: at least 12,000 feet AGL
Clouds: clear skies
Weather: no significant weather observed at this time

METAR text: MMGL 231041Z 00000KT 10SM SKC 11/06 A3020
Conditions at: MMGL (GUADALAJARA , MX) observed 1041 UTC 23 March 2019
Temperature: 11.0°C (52°F)
Dewpoint: 6.0°C (43°F) [RH = 71%]
Pressure (altimeter): 30.20 inches Hg (1022.8 mb)
Winds: calm
Visibility: 10 or more miles (16+ km)
Ceiling: at least 12,000 feet AGL
Clouds: clear skies
Weather: no significant weather observed at this time

METAR text: MMGL 230941Z 00000KT 10SM SKC 12/06 A3020
Conditions at: MMGL (GUADALAJARA , MX) observed 0941 UTC 23 March 2019
Temperature: 12.0°C (54°F)
Dewpoint: 6.0°C (43°F) [RH = 67%]
Pressure (altimeter): 30.20 inches Hg (1022.8 mb)
Winds: calm
Visibility: 10 or more miles (16+ km)
Ceiling: at least 12,000 feet AGL
Clouds: clear skies
Weather: no significant weather observed at this time

METAR text: MMGL 230842Z 00000KT 8SM SKC 12/02 A3020 RMK SLP111 57003 951
Conditions at: MMGL (GUADALAJARA , MX) observed 0842 UTC 23 March 2019
Temperature: 12.0°C (54°F)
Dewpoint: 2.0°C (36°F) [RH = 50%]
Pressure (altimeter): 30.20 inches Hg (1022.8 mb)
[Sea-level pressure: 1011.1 mb]
Winds: calm
Visibility: 8 miles (13 km)
Ceiling: at least 12,000 feet AGL
Clouds: clear skies
Weather: no significant weather observed at this time

METAR text: MMGL 230741Z 00000KT 10SM SKC 15/07 A3021
Conditions at: MMGL (GUADALAJARA , MX) observed 0741 UTC 23 March 2019
Temperature: 15.0°C (59°F)
Dewpoint: 7.0°C (45°F) [RH = 59%]
Pressure (altimeter): 30.21 inches Hg (1023.1 mb)
Winds: calm
Visibility: 10 or more miles (16+ km)
Ceiling: at least 12,000 feet AGL
Clouds: clear skies
Weather: no significant weather observed at this time

METAR text: MMGL 230645Z 36007KT 10SM SKC 16/07 A3021
Conditions at: MMGL (GUADALAJARA , MX) observed 0645 UTC 23 March 2019
Temperature: 16.0°C (61°F)
Dewpoint: 7.0°C (45°F) [RH = 55%]
Pressure (altimeter): 30.21 inches Hg (1023.1 mb)
Winds: from the N (360 degrees) at 8 MPH (7 knots; 3.6 m/s)
Visibility: 10 or more miles (16+ km)
Ceiling: at least 12,000 feet AGL
Clouds: clear skies
Weather: no significant weather observed at this time

METAR text: MMGL 230545Z 30006KT 10SM SKC 17/06 A3021 RMK SLP112 52016 902
Conditions at: MMGL (GUADALAJARA , MX) observed 0545 UTC 23 March 2019
Temperature: 17.0°C (63°F)
Dewpoint: 6.0°C (43°F) [RH = 48%]
Pressure (altimeter): 30.21 inches Hg (1023.1 mb)
[Sea-level pressure: 1011.2 mb]
Winds: from the WNW (300 degrees) at 7 MPH (6 knots; 3.1 m/s)
Visibility: 10 or more miles (16+ km)
Ceiling: at least 12,000 feet AGL
Clouds: clear skies
Weather: no significant weather observed at this time

METAR text: MMGL 230452Z 28007KT 10SM SKC 18/06 A3021
Conditions at: MMGL (GUADALAJARA , MX) observed 0452 UTC 23 March 2019
Temperature: 18.0°C (64°F)
Dewpoint: 6.0°C (43°F) [RH = 45%]
Pressure (altimeter): 30.21 inches Hg (1023.1 mb)
Winds: from the W (280 degrees) at 8 MPH (7 knots; 3.6 m/s)
Visibility: 10 or more miles (16+ km)
Ceiling: at least 12,000 feet AGL
Clouds: clear skies
Weather: no significant weather observed at this time

METAR text: MMGL 230348Z 00000KT 10SM SKC 19/04 A3019
Conditions at: MMGL (GUADALAJARA , MX) observed 0348 UTC 23 March 2019
Temperature: 19.0°C (66°F)
Dewpoint: 4.0°C (39°F) [RH = 37%]
Pressure (altimeter): 30.19 inches Hg (1022.4 mb)
Winds: calm
Visibility: 10 or more miles (16+ km)
Ceiling: at least 12,000 feet AGL
Clouds: clear skies
Weather: no significant weather observed at this time

METAR text: MMGL 230240Z 23003KT 10SM SKC 21/03 A3015 RMK SLP098 52021 906 SC
Conditions at: MMGL (GUADALAJARA , MX) observed 0240 UTC 23 March 2019
Temperature: 21.0°C (70°F)
Dewpoint: 3.0°C (37°F) [RH = 30%]
Pressure (altimeter): 30.15 inches Hg (1021.1 mb)
[Sea-level pressure: 1009.8 mb]
Winds: from the SW (230 degrees) at 3 MPH (3 knots; 1.5 m/s)
Visibility: 10 or more miles (16+ km)
Ceiling: at least 12,000 feet AGL
Clouds: clear skies
Weather: no significant weather observed at this time

METAR text: MMGL 230140Z 28005KT 10SM SKC 23/02 A3012 RMK SC
Conditions at: MMGL (GUADALAJARA , MX) observed 0140 UTC 23 March 2019
Temperature: 23.0°C (73°F)
Dewpoint: 2.0°C (36°F) [RH = 25%]
Pressure (altimeter): 30.12 inches Hg (1020.1 mb)
Winds: from the W (280 degrees) at 6 MPH (5 knots; 2.6 m/s)
Visibility: 10 or more miles (16+ km)
Ceiling: at least 12,000 feet AGL
Clouds: clear skies
Weather: no significant weather observed at this time

METAR text: MMGL 230041Z 28010G20KT 10SM FEW030 25/01 A3009 RMK 8/400
Conditions at: MMGL (GUADALAJARA , MX) observed 0041 UTC 23 March 2019
Temperature: 25.0°C (77°F)
Dewpoint: 1.0°C (34°F) [RH = 21%]
Pressure (altimeter): 30.09 inches Hg (1019.0 mb)
Winds: from the W (280 degrees) at 12 MPH (10 knots; 5.1 m/s)
gusting to 23 MPH (20 knots; 10.3 m/s)
Visibility: 10 or more miles (16+ km)
Ceiling: at least 12,000 feet AGL
Clouds: few clouds at 3000 feet AGL
Weather: no significant weather observed at this time

METAR text: MMGL 222341Z 26012KT 10SM FEW030 26/M01 A3007 RMK SLP079 57015 902 8/100
Conditions at: MMGL (GUADALAJARA , MX) observed 2341 UTC 22 March 2019
Temperature: 26.0°C (79°F)
Dewpoint: -1.0°C (30°F) [RH = 17%]
Pressure (altimeter): 30.07 inches Hg (1018.4 mb)
[Sea-level pressure: 1007.9 mb]
Winds: from the W (260 degrees) at 14 MPH (12 knots; 6.2 m/s)
Visibility: 10 or more miles (16+ km)
Ceiling: at least 12,000 feet AGL
Clouds: few clouds at 3000 feet AGL
Weather: no significant weather observed at this time

METAR text: MMGL 222243Z 28006G18KT 10SM SCT030 28/M02 A3006 RMK 8/100
Conditions at: MMGL (GUADALAJARA , MX) observed 2243 UTC 22 March 2019
Temperature: 28.0°C (82°F)
Dewpoint: -2.0°C (28°F) [RH = 14%]
Pressure (altimeter): 30.06 inches Hg (1018.0 mb)
Winds: from the W (280 degrees) at 7 MPH (6 knots; 3.1 m/s)
gusting to 21 MPH (18 knots; 9.3 m/s)
Visibility: 10 or more miles (16+ km)
Ceiling: at least 12,000 feet AGL
Clouds: scattered clouds at 3000 feet AGL
Weather: no significant weather observed at this time

METAR text: MMGL 222140Z 00000KT 10SM SCT030 28/M01 A3008 RMK 8/100
Conditions at: MMGL (GUADALAJARA , MX) observed 2140 UTC 22 March 2019
Temperature: 28.0°C (82°F)
Dewpoint: -1.0°C (30°F) [RH = 15%]
Pressure (altimeter): 30.08 inches Hg (1018.7 mb)
Winds: calm
Visibility: 10 or more miles (16+ km)
Ceiling: at least 12,000 feet AGL
Clouds: scattered clouds at 3000 feet AGL
Weather: no significant weather observed at this time

METAR text: MMGL 222042Z 22007G22KT 10SM FEW030 28/M02 A3011 RMK SLP083 57030 906 8/100
Conditions at: MMGL (GUADALAJARA , MX) observed 2042 UTC 22 March 2019
Temperature: 28.0°C (82°F)
Dewpoint: -2.0°C (28°F) [RH = 14%]
Pressure (altimeter): 30.11 inches Hg (1019.7 mb)
[Sea-level pressure: 1008.3 mb]
Winds: from the SW (220 degrees) at 8 MPH (7 knots; 3.6 m/s)
gusting to 25 MPH (22 knots; 11.3 m/s)
Visibility: 10 or more miles (16+ km)
Ceiling: at least 12,000 feet AGL
Clouds: few clouds at 3000 feet AGL
Weather: no significant weather observed at this time

METAR text: MMGL 221948Z 32007KT 15SM SKC 26/M02 A3014 RMK FU S CU
Conditions at: MMGL (GUADALAJARA , MX) observed 1948 UTC 22 March 2019
Temperature: 26.0°C (79°F)
Dewpoint: -2.0°C (28°F) [RH = 16%]
Pressure (altimeter): 30.14 inches Hg (1020.7 mb)
Winds: from the NW (320 degrees) at 8 MPH (7 knots; 3.6 m/s)
Visibility: 15 miles (24 km)
Ceiling: at least 12,000 feet AGL
Clouds: clear skies
Weather: no significant weather observed at this time

METAR text: MMGL 221844Z 16011KT 15SM SKC 26/M03 A3018 RMK FU WSW
Conditions at: MMGL (GUADALAJARA , MX) observed 1844 UTC 22 March 2019
Temperature: 26.0°C (79°F)
Dewpoint: -3.0°C (27°F) [RH = 15%]
Pressure (altimeter): 30.18 inches Hg (1022.1 mb)
Winds: from the SSE (160 degrees) at 13 MPH (11 knots; 5.7 m/s)
Visibility: 15 miles (24 km)
Ceiling: at least 12,000 feet AGL
Clouds: clear skies
Weather: no significant weather observed at this time

METAR text: MMGL 221743Z 16006KT 15SM SKC 24/00 A3021 RMK SLP119 57006 904
Conditions at: MMGL (GUADALAJARA , MX) observed 1743 UTC 22 March 2019
Temperature: 24.0°C (75°F)
Dewpoint: 0.0°C (32°F) [RH = 20%]
Pressure (altimeter): 30.21 inches Hg (1023.1 mb)
[Sea-level pressure: 1011.9 mb]
Winds: from the SSE (160 degrees) at 7 MPH (6 knots; 3.1 m/s)
Visibility: 15 miles (24 km)
Ceiling: at least 12,000 feet AGL
Clouds: clear skies
Weather: no significant weather observed at this time

METAR text: MMGL 221640Z 00000KT 15SM SKC 22/06 A3026
Conditions at: MMGL (GUADALAJARA , MX) observed 1640 UTC 22 March 2019
Temperature: 22.0°C (72°F)
Dewpoint: 6.0°C (43°F) [RH = 35%]
Pressure (altimeter): 30.26 inches Hg (1024.8 mb)
Winds: calm
Visibility: 15 miles (24 km)
Ceiling: at least 12,000 feet AGL
Clouds: clear skies
Weather: no significant weather observed at this time

METAR text: MMGL 221541Z 00000KT 15SM SKC 20/07 A3026
Conditions at: MMGL (GUADALAJARA , MX) observed 1541 UTC 22 March 2019
Temperature: 20.0°C (68°F)
Dewpoint: 7.0°C (45°F) [RH = 43%]
Pressure (altimeter): 30.26 inches Hg (1024.8 mb)
Winds: calm
Visibility: 15 miles (24 km)
Ceiling: at least 12,000 feet AGL
Clouds: clear skies
Weather: no significant weather observed at this time

METAR text: MMGL 221449Z 00000KT 12SM SKC 17/07 A3035 RMK SLP131 51013 907
Conditions at: MMGL (GUADALAJARA , MX) observed 1449 UTC 22 March 2019
Temperature: 17.0°C (63°F)
Dewpoint: 7.0°C (45°F) [RH = 52%]
Pressure (altimeter): 30.35 inches Hg (1027.9 mb)
[Sea-level pressure: 1013.1 mb]
Winds: calm
Visibility: 12 miles (19 km)
Ceiling: at least 12,000 feet AGL
Clouds: clear skies
Weather: no significant weather observed at this time

METAR text: MMGL 221342Z 00000KT 12SM SKC 12/07 A3022
Conditions at: MMGL (GUADALAJARA , MX) observed 1342 UTC 22 March 2019
Temperature: 12.0°C (54°F)
Dewpoint: 7.0°C (45°F) [RH = 71%]
Pressure (altimeter): 30.22 inches Hg (1023.5 mb)
Winds: calm
Visibility: 12 miles (19 km)
Ceiling: at least 12,000 feet AGL
Clouds: clear skies
Weather: no significant weather observed at this time

METAR text: MMGL 221241Z 00000KT 10SM SKC 10/07 A3021
Conditions at: MMGL (GUADALAJARA , MX) observed 1241 UTC 22 March 2019
Temperature: 10.0°C (50°F)
Dewpoint: 7.0°C (45°F) [RH = 82%]
Pressure (altimeter): 30.21 inches Hg (1023.1 mb)
Winds: calm
Visibility: 10 or more miles (16+ km)
Ceiling: at least 12,000 feet AGL
Clouds: clear skies
Weather: no significant weather observed at this time

METAR text: MMGL 221150Z 00000KT 10SM SKC 10/06 A3020 RMK SLP122 52003 914
Conditions at: MMGL (GUADALAJARA , MX) observed 1150 UTC 22 March 2019
Temperature: 10.0°C (50°F)
Dewpoint: 6.0°C (43°F) [RH = 76%]
Pressure (altimeter): 30.20 inches Hg (1022.8 mb)
[Sea-level pressure: 1012.2 mb]
Winds: calm
Visibility: 10 or more miles (16+ km)
Ceiling: at least 12,000 feet AGL
Clouds: clear skies
Weather: no significant weather observed at this time

Forecast for: MMGL (GUADALAJARA , MX)
Text: TAF MMGL 231633Z 2318/2424 25010KT P6SM SKC TX29/2321Z TN12/2412Z
Forecast period: 1800 UTC 23 March 2019 to 0400 UTC 24 March 2019
Forecast type: FROM: standard forecast or significant change
Winds: from the WSW (250 degrees) at 12 MPH (10 knots; 5.1 m/s)
Visibility: 6 or more miles 10+ km)
Clouds: clear skies
Weather: no significant weather forecast for this period
Text: TEMPO 2321/2401 25008G18KT
Forecast period: 2100 UTC 23 March 2019 to 0100 UTC 24 March 2019
Forecast type: TEMPORARY: The following changes expected for less than half the time period
Winds: from the WSW (250 degrees) at 9 MPH (8 knots; 4.1 m/s)
gusting to 21 MPH (18 knots; 9.3 m/s)
Visibility: missing
Ceiling: unknown
Clouds: missing
Weather: no significant weather forecast for this period
Text: FM240400 00000KT P6SM SKC
Forecast period: 0400 to 1700 UTC 24 March 2019
Forecast type: FROM: standard forecast or significant change
Winds: calm
Visibility: 6 or more miles 10+ km)
Clouds: clear skies
Weather: no significant weather forecast for this period
Text: FM241700 24010KT P6SM SKC
Forecast period: 1700 UTC 24 March 2019 to 0000 UTC 25 March 2019
Forecast type: FROM: standard forecast or significant change
Winds: from the WSW (240 degrees) at 12 MPH (10 knots; 5.1 m/s)
Visibility: 6 or more miles 10+ km)
Clouds: clear skies
Weather: no significant weather forecast for this period